createdAt,value
2024-01-05T00:00:09.819Z,7.79
2024-01-05T00:01:09.909Z,7.83
2024-01-05T00:02:11.564Z,7.83
2024-01-05T00:03:09.961Z,7.76
2024-01-05T00:04:10.087Z,7.66
2024-01-05T00:05:09.953Z,7.65
2024-01-05T00:06:10.110Z,7.71
2024-01-05T00:07:10.125Z,7.71
2024-01-05T00:08:10.082Z,7.66
2024-01-05T00:09:10.154Z,7.59
2024-01-05T00:10:10.213Z,7.46
2024-01-05T00:11:10.201Z,7.35
2024-01-05T00:12:10.319Z,7.29
2024-01-05T00:13:10.317Z,7.33
2024-01-05T00:14:10.371Z,7.21
2024-01-05T00:15:10.775Z,7.18
2024-01-05T00:16:10.442Z,7.17
2024-01-05T00:17:11.197Z,7.03
2024-01-05T00:18:10.700Z,6.90
2024-01-05T00:19:10.753Z,6.87
2024-01-05T00:20:10.767Z,6.92
2024-01-05T00:21:10.703Z,7.01
2024-01-05T00:22:10.657Z,6.97
2024-01-05T00:23:10.801Z,7.05
2024-01-05T00:24:10.809Z,7.15
2024-01-05T00:25:10.793Z,7.25
2024-01-05T00:26:10.809Z,7.29
2024-01-05T00:27:10.841Z,7.35
2024-01-05T00:28:10.845Z,7.36
2024-01-05T00:29:10.882Z,7.38
2024-01-05T00:30:10.981Z,7.40
2024-01-05T00:31:10.981Z,7.44
2024-01-05T00:32:10.973Z,7.54
2024-01-05T00:33:11.164Z,7.56
2024-01-05T00:34:11.105Z,7.49
2024-01-05T00:35:11.084Z,7.53
2024-01-05T00:36:11.124Z,7.52
2024-01-05T00:37:11.114Z,7.44
2024-01-05T00:38:11.206Z,7.40
2024-01-05T00:39:11.226Z,7.52
2024-01-05T00:40:11.309Z,7.54
2024-01-05T00:41:11.353Z,7.47
2024-01-05T00:42:11.512Z,7.42
2024-01-05T00:43:11.668Z,7.24
2024-01-05T00:44:11.640Z,7.23
2024-01-05T00:45:11.727Z,7.27
2024-01-05T00:46:11.756Z,7.35
2024-01-05T00:47:11.793Z,7.35
2024-01-05T00:48:11.971Z,7.41
2024-01-05T00:49:12.055Z,7.36
2024-01-05T00:50:12.138Z,7.36
2024-01-05T00:51:12.224Z,7.31
2024-01-05T00:52:12.252Z,7.29
2024-01-05T00:53:12.356Z,7.29
2024-01-05T00:54:12.477Z,7.31
2024-01-05T00:55:12.562Z,7.28
2024-01-05T00:56:12.568Z,7.26
2024-01-05T00:57:12.688Z,7.28
2024-01-05T00:58:12.769Z,7.32
2024-01-05T00:59:12.816Z,7.32
2024-01-05T01:00:12.949Z,7.31
2024-01-05T01:01:13.115Z,7.13
2024-01-05T01:02:13.106Z,6.87
2024-01-05T01:03:13.298Z,6.53
2024-01-05T01:04:13.454Z,6.35
2024-01-05T01:05:13.345Z,6.43
2024-01-05T01:06:13.411Z,6.57
2024-01-05T01:07:14.375Z,6.74
2024-01-05T01:08:13.481Z,6.80
2024-01-05T01:09:13.514Z,6.89
2024-01-05T01:10:13.473Z,7.01
2024-01-05T01:11:13.557Z,7.00
2024-01-05T01:12:13.550Z,6.99
2024-01-05T01:13:13.639Z,6.96
2024-01-05T01:14:13.611Z,7.01
2024-01-05T01:15:13.775Z,6.92
2024-01-05T01:16:13.751Z,6.92
2024-01-05T01:17:13.782Z,6.99
2024-01-05T01:18:14.588Z,7.06
2024-01-05T01:19:13.967Z,7.03
2024-01-05T01:20:13.860Z,7.11
2024-01-05T01:21:14.025Z,7.16
2024-01-05T01:22:14.044Z,7.21
2024-01-05T01:23:14.113Z,7.17
2024-01-05T01:24:14.270Z,7.16
2024-01-05T01:25:14.312Z,7.18
2024-01-05T01:26:14.413Z,7.14
2024-01-05T01:27:14.590Z,7.23
2024-01-05T01:28:14.655Z,7.18
2024-01-05T01:29:14.740Z,7.26
2024-01-05T01:30:15.086Z,7.22
2024-01-05T01:31:14.975Z,7.22
2024-01-05T01:32:15.066Z,7.18
2024-01-05T01:33:15.190Z,7.25
2024-01-05T01:34:15.311Z,7.26
2024-01-05T01:35:15.306Z,7.29
2024-01-05T01:36:15.409Z,7.28
2024-01-05T01:37:15.424Z,7.34
2024-01-05T01:38:15.462Z,7.38
2024-01-05T01:39:15.469Z,7.40
2024-01-05T01:40:15.513Z,7.39
2024-01-05T01:41:15.519Z,7.42
2024-01-05T01:42:15.647Z,7.37
2024-01-05T01:43:15.671Z,7.38
2024-01-05T01:44:15.655Z,7.44
2024-01-05T01:45:15.710Z,7.42
2024-01-05T01:46:15.687Z,7.42
2024-01-05T01:47:15.721Z,7.45
2024-01-05T01:48:15.909Z,7.40
2024-01-05T01:49:15.934Z,7.33
2024-01-05T01:50:15.902Z,7.38
2024-01-05T01:51:16.023Z,7.39
2024-01-05T01:52:16.069Z,7.27
2024-01-05T01:53:16.230Z,7.26
2024-01-05T01:54:16.264Z,7.27
2024-01-05T01:55:16.298Z,7.26
2024-01-05T01:56:16.521Z,7.23
2024-01-05T01:57:16.515Z,7.17
2024-01-05T01:58:16.578Z,7.19
2024-01-05T01:59:16.602Z,7.18
2024-01-05T02:00:16.759Z,7.20
2024-01-05T02:01:16.806Z,7.25
2024-01-05T02:02:16.801Z,7.26
2024-01-05T02:03:16.924Z,7.28
2024-01-05T02:04:17.076Z,7.25
2024-01-05T02:05:17.064Z,7.23
2024-01-05T02:06:17.079Z,7.28
2024-01-05T02:07:17.119Z,7.25
2024-01-05T02:08:17.170Z,7.23
2024-01-05T02:09:17.228Z,7.28
2024-01-05T02:10:17.208Z,7.17
2024-01-05T02:11:17.304Z,7.19
2024-01-05T02:12:17.401Z,7.21
2024-01-05T02:13:17.413Z,7.17
2024-01-05T02:14:17.464Z,7.21
2024-01-05T02:15:17.483Z,7.21
2024-01-05T02:16:17.631Z,7.23
2024-01-05T02:17:17.601Z,7.07
2024-01-05T02:18:17.830Z,6.98
2024-01-05T02:19:17.799Z,6.91
2024-01-05T02:20:17.780Z,6.88
2024-01-05T02:21:17.831Z,6.78
2024-01-05T02:22:17.837Z,6.68
2024-01-05T02:23:17.890Z,6.53
2024-01-05T02:24:17.988Z,6.31
2024-01-05T02:25:18.009Z,6.05
2024-01-05T02:26:18.160Z,5.86
2024-01-05T02:27:18.137Z,5.86
2024-01-05T02:28:18.327Z,5.99
2024-01-05T02:29:18.339Z,6.18
2024-01-05T02:30:18.410Z,6.32
2024-01-05T02:31:18.400Z,6.28
2024-01-05T02:32:18.451Z,6.28
2024-01-05T02:33:18.655Z,6.42
2024-01-05T02:34:18.744Z,6.50
2024-01-05T02:35:18.577Z,6.36
2024-01-05T02:36:18.607Z,6.42
2024-01-05T02:37:18.632Z,6.53
2024-01-05T02:38:18.634Z,6.61
2024-01-05T02:39:18.738Z,6.72
2024-01-05T02:40:18.822Z,6.80
2024-01-05T02:41:18.959Z,6.87
2024-01-05T02:42:19.114Z,6.87
2024-01-05T02:43:19.152Z,6.84
2024-01-05T02:44:19.266Z,6.84
2024-01-05T02:45:20.211Z,6.86
2024-01-05T02:46:19.497Z,6.84
2024-01-05T02:47:19.551Z,6.78
2024-01-05T02:48:19.724Z,6.64
2024-01-05T02:49:19.769Z,6.43
2024-01-05T02:50:20.672Z,6.41
2024-01-05T02:51:19.833Z,6.39
2024-01-05T02:52:19.824Z,6.29
2024-01-05T02:53:19.860Z,6.08
2024-01-05T02:54:19.977Z,5.93
2024-01-05T02:55:19.943Z,6.01
2024-01-05T02:56:20.051Z,6.19
2024-01-05T02:57:20.078Z,6.33
2024-01-05T02:58:20.072Z,6.36
2024-01-05T02:59:20.170Z,6.38
2024-01-05T03:00:20.250Z,6.23
2024-01-05T03:01:20.252Z,6.14
2024-01-05T03:02:20.296Z,6.20
2024-01-05T03:03:20.469Z,6.33
2024-01-05T03:04:20.550Z,6.40
2024-01-05T03:05:20.644Z,6.36
2024-01-05T03:06:20.837Z,6.31
2024-01-05T03:07:20.750Z,6.35
2024-01-05T03:08:20.878Z,6.33
2024-01-05T03:09:21.120Z,6.04
2024-01-05T03:10:21.066Z,5.74
2024-01-05T03:11:21.210Z,5.76
2024-01-05T03:12:21.343Z,5.95
2024-01-05T03:13:21.409Z,6.08
2024-01-05T03:14:21.434Z,6.21
2024-01-05T03:15:21.688Z,6.38
2024-01-05T03:16:21.639Z,6.39
2024-01-05T03:17:21.834Z,6.21
2024-01-05T03:18:21.968Z,6.13
2024-01-05T03:19:22.067Z,6.17
2024-01-05T03:20:22.168Z,6.41
2024-01-05T03:21:22.195Z,6.54
2024-01-05T03:22:22.263Z,6.59
2024-01-05T03:23:22.398Z,6.62
2024-01-05T03:24:22.670Z,6.76
2024-01-05T03:25:22.803Z,6.86
2024-01-05T03:26:22.524Z,6.85
2024-01-05T03:27:22.664Z,6.81
2024-01-05T03:28:22.647Z,6.82
2024-01-05T03:29:22.651Z,6.78
2024-01-05T03:30:22.798Z,6.77
2024-01-05T03:31:22.809Z,6.86
2024-01-05T03:32:22.880Z,6.81
2024-01-05T03:33:23.098Z,6.67
2024-01-05T03:34:23.165Z,6.55
2024-01-05T03:35:23.188Z,6.56
2024-01-05T03:36:23.222Z,6.64
2024-01-05T03:37:23.290Z,6.76
2024-01-05T03:38:23.508Z,6.87
2024-01-05T03:39:23.451Z,6.81
2024-01-05T03:40:23.526Z,6.74
2024-01-05T03:41:23.830Z,6.72
2024-01-05T03:42:23.697Z,6.75
2024-01-05T03:43:24.383Z,6.70
2024-01-05T03:44:23.798Z,6.76
2024-01-05T03:45:24.015Z,6.94
2024-01-05T03:46:24.001Z,7.01
2024-01-05T03:47:24.101Z,7.06
2024-01-05T03:48:24.279Z,7.13
2024-01-05T03:49:24.363Z,7.20
2024-01-05T03:50:24.388Z,7.16
2024-01-05T03:51:24.546Z,7.15
2024-01-05T03:52:24.641Z,7.27
2024-01-05T03:53:24.736Z,7.19
2024-01-05T03:54:24.811Z,7.18
2024-01-05T03:55:24.985Z,7.13
2024-01-05T03:56:24.978Z,7.12
2024-01-05T03:57:25.145Z,7.19
2024-01-05T03:58:25.119Z,7.22
2024-01-05T03:59:25.191Z,7.31
2024-01-05T04:00:25.250Z,7.27
2024-01-05T04:01:25.444Z,7.01
2024-01-05T04:02:25.461Z,6.75
2024-01-05T04:03:25.599Z,6.55
2024-01-05T04:04:25.603Z,6.44
2024-01-05T04:05:25.621Z,6.39
2024-01-05T04:06:25.665Z,6.49
2024-01-05T04:07:25.698Z,6.52
2024-01-05T04:08:25.681Z,6.57
2024-01-05T04:09:25.805Z,6.59
2024-01-05T04:10:25.810Z,6.65
2024-01-05T04:11:25.827Z,6.69
2024-01-05T04:12:25.936Z,6.68
2024-01-05T04:13:26.019Z,6.61
2024-01-05T04:14:26.096Z,6.49
2024-01-05T04:15:26.027Z,6.49
2024-01-05T04:16:26.039Z,6.45
2024-01-05T04:17:26.225Z,6.34
2024-01-05T04:18:26.362Z,6.12
2024-01-05T04:19:26.472Z,6.05
2024-01-05T04:20:26.438Z,5.92
2024-01-05T04:21:26.627Z,5.92
2024-01-05T04:22:26.691Z,6.07
2024-01-05T04:23:26.828Z,6.24
2024-01-05T04:24:26.830Z,6.24
2024-01-05T04:25:26.941Z,6.12
2024-01-05T04:26:27.090Z,6.24
2024-01-05T04:27:27.097Z,6.26
2024-01-05T04:28:27.160Z,6.30
2024-01-05T04:29:27.172Z,6.38
2024-01-05T04:30:27.308Z,6.45
2024-01-05T04:31:27.315Z,6.30
2024-01-05T04:32:27.367Z,6.13
2024-01-05T04:33:27.488Z,6.03
2024-01-05T04:34:27.726Z,6.12
2024-01-05T04:35:27.518Z,6.22
2024-01-05T04:36:27.653Z,6.32
2024-01-05T04:37:27.619Z,6.24
2024-01-05T04:38:27.808Z,6.16
2024-01-05T04:39:27.793Z,6.14
2024-01-05T04:40:27.727Z,6.18
2024-01-05T04:41:27.767Z,6.27
2024-01-05T04:42:28.416Z,6.34
2024-01-05T04:43:27.877Z,6.52
2024-01-05T04:44:27.867Z,6.47
2024-01-05T04:45:28.364Z,6.46
2024-01-05T04:46:27.978Z,6.53
2024-01-05T04:47:28.174Z,6.65
2024-01-05T04:48:28.192Z,6.51
2024-01-05T04:49:28.316Z,6.32
2024-01-05T04:50:28.209Z,6.41
2024-01-05T04:51:28.316Z,6.44
2024-01-05T04:52:28.278Z,6.50
2024-01-05T04:53:28.462Z,6.49
2024-01-05T04:54:28.439Z,6.55
2024-01-05T04:55:28.446Z,6.51
2024-01-05T04:56:28.543Z,6.35
2024-01-05T04:57:36.245Z,6.11
2024-01-05T04:58:36.124Z,5.93
2024-01-05T04:59:36.077Z,5.83
2024-01-05T05:00:36.242Z,5.76
2024-01-05T05:01:36.159Z,5.63
2024-01-05T05:02:36.123Z,5.68
2024-01-05T05:03:36.307Z,5.62
2024-01-05T05:04:36.067Z,5.81
2024-01-05T05:05:36.093Z,6.01
2024-01-05T05:06:36.139Z,6.06
2024-01-05T05:07:36.588Z,5.82
2024-01-05T05:08:36.094Z,5.81
2024-01-05T05:09:36.075Z,5.73
2024-01-05T05:10:36.033Z,6.01
2024-01-05T05:11:35.990Z,6.13
2024-01-05T05:12:36.107Z,6.10
2024-01-05T05:13:36.030Z,5.86
2024-01-05T05:14:35.945Z,5.95
2024-01-05T05:15:35.995Z,5.93
2024-01-05T05:16:36.062Z,5.81
2024-01-05T05:17:36.016Z,5.91
2024-01-05T05:18:36.187Z,6.12
2024-01-05T05:19:36.023Z,6.21
2024-01-05T05:20:35.997Z,6.28
2024-01-05T05:21:35.959Z,6.25
2024-01-05T05:22:35.936Z,6.32
2024-01-05T05:23:35.916Z,6.43
2024-01-05T05:24:35.991Z,6.44
2024-01-05T05:25:35.852Z,6.51
2024-01-05T05:26:35.832Z,6.44
2024-01-05T05:27:36.004Z,6.41
2024-01-05T05:28:35.846Z,6.14
2024-01-05T05:29:35.739Z,5.94
2024-01-05T05:30:35.790Z,5.86
2024-01-05T05:31:35.792Z,5.89
2024-01-05T05:32:35.679Z,5.79
2024-01-05T05:33:35.814Z,5.87
2024-01-05T05:34:35.811Z,5.91
2024-01-05T05:35:35.590Z,5.93
2024-01-05T05:36:35.616Z,6.19
2024-01-05T05:37:35.620Z,6.24
2024-01-05T05:38:35.568Z,6.17
2024-01-05T05:39:35.646Z,6.11
2024-01-05T05:40:35.504Z,6.15
2024-01-05T05:41:35.536Z,6.25
2024-01-05T05:42:35.561Z,6.21
2024-01-05T05:43:35.495Z,6.12
2024-01-05T05:44:35.550Z,6.12
2024-01-05T05:45:35.516Z,6.13
2024-01-05T05:46:35.395Z,6.15
2024-01-05T05:47:35.526Z,6.15
2024-01-05T05:48:35.424Z,6.35
2024-01-05T05:49:35.498Z,6.53
2024-01-05T05:50:35.358Z,6.66
2024-01-05T05:51:35.316Z,6.62
2024-01-05T05:52:35.274Z,6.48
2024-01-05T05:53:35.249Z,6.14
2024-01-05T05:54:35.292Z,5.95
2024-01-05T05:55:35.239Z,5.93
2024-01-05T05:56:35.312Z,6.06
2024-01-05T05:57:35.351Z,6.29
2024-01-05T05:58:36.075Z,6.50
2024-01-05T05:59:35.343Z,6.58
2024-01-05T06:00:35.647Z,6.59
2024-01-05T06:01:58.508Z,6.66
2024-01-05T06:02:35.576Z,6.75
2024-01-05T06:03:35.574Z,6.87
2024-01-05T06:04:35.500Z,6.74
2024-01-05T06:05:35.430Z,6.73
2024-01-05T06:06:35.576Z,6.71
2024-01-05T06:07:35.400Z,6.82
2024-01-05T06:08:35.395Z,6.82
2024-01-05T06:09:35.464Z,6.74
2024-01-05T06:10:35.320Z,6.91
2024-01-05T06:11:35.330Z,7.07
2024-01-05T06:12:35.267Z,7.05
2024-01-05T06:13:36.694Z,7.08
2024-01-05T06:14:35.276Z,7.12
2024-01-05T06:15:35.356Z,7.07
2024-01-05T06:16:35.174Z,6.84
2024-01-05T06:17:35.238Z,6.75
2024-01-05T06:18:35.241Z,6.71
2024-01-05T06:19:35.356Z,6.69
2024-01-05T06:20:35.110Z,6.56
2024-01-05T06:21:35.167Z,6.39
2024-01-05T06:22:35.268Z,6.34
2024-01-05T06:23:35.094Z,6.39
2024-01-05T06:24:35.283Z,6.38
2024-01-05T06:25:35.019Z,6.20
2024-01-05T06:26:35.034Z,6.07
2024-01-05T06:27:38.990Z,5.92
2024-01-05T06:28:35.957Z,5.88
2024-01-05T06:29:35.072Z,5.95
2024-01-05T06:30:34.839Z,6.05
2024-01-05T06:31:34.855Z,6.24
2024-01-05T06:32:34.787Z,6.44
2024-01-05T06:33:35.045Z,6.55
2024-01-05T06:34:34.991Z,6.60
2024-01-05T06:35:34.823Z,6.59
2024-01-05T06:36:34.862Z,6.46
2024-01-05T06:37:34.797Z,6.46
2024-01-05T06:38:34.819Z,6.44
2024-01-05T06:39:34.883Z,6.44
2024-01-05T06:40:34.886Z,6.45
2024-01-05T06:41:34.812Z,6.40
2024-01-05T06:42:34.892Z,6.28
2024-01-05T06:43:34.765Z,6.26
2024-01-05T06:44:34.745Z,6.18
2024-01-05T06:45:34.844Z,6.18
2024-01-05T06:48:05.737Z,5.88
2024-01-05T06:48:41.582Z,6.12
2024-01-05T06:49:40.802Z,6.25
2024-01-05T06:50:41.088Z,6.37
2024-01-05T06:51:42.149Z,6.44
2024-01-05T06:52:40.501Z,6.48
2024-01-05T06:53:40.468Z,6.44
2024-01-05T06:54:40.948Z,6.32
2024-01-05T06:55:41.149Z,6.42
2024-01-05T06:56:40.634Z,6.51
2024-01-05T06:57:40.376Z,6.59
2024-01-05T06:58:40.244Z,6.53
2024-01-05T06:59:40.176Z,6.39
2024-01-05T07:00:41.331Z,6.40
2024-01-05T07:01:40.052Z,6.50
2024-01-05T07:02:40.507Z,6.55
2024-01-05T07:03:40.037Z,6.52
2024-01-05T07:04:40.041Z,6.50
2024-01-05T07:05:40.138Z,6.45
2024-01-05T07:06:40.012Z,6.50
2024-01-05T07:07:39.991Z,6.64
2024-01-05T07:08:39.822Z,6.69
2024-01-05T07:09:40.235Z,6.60
2024-01-05T07:10:39.897Z,6.35
2024-01-05T07:11:40.219Z,6.24
2024-01-05T07:12:39.976Z,6.07
2024-01-05T07:13:39.937Z,5.80
2024-01-05T07:14:40.503Z,5.72
2024-01-05T07:15:40.479Z,5.81
2024-01-05T07:16:40.055Z,5.89
2024-01-05T07:17:40.189Z,6.07
2024-01-05T07:18:40.076Z,6.24
2024-01-05T07:19:40.144Z,6.33
2024-01-05T07:20:40.075Z,6.24
2024-01-05T07:21:40.184Z,6.19
2024-01-05T07:22:40.817Z,5.95
2024-01-05T07:23:40.211Z,5.78
2024-01-05T07:26:07.337Z,5.39
2024-01-05T07:26:44.622Z,5.61
2024-01-05T07:27:44.628Z,5.59
2024-01-05T07:28:44.666Z,5.61
2024-01-05T07:29:44.636Z,5.70
2024-01-05T07:30:44.670Z,5.80
2024-01-05T07:31:44.954Z,5.93
2024-01-05T07:32:44.684Z,5.96
2024-01-05T07:33:44.701Z,5.75
2024-01-05T07:34:44.623Z,5.80
2024-01-05T07:35:44.616Z,5.82
2024-01-05T07:36:44.621Z,5.75
2024-01-05T07:37:44.615Z,5.68
2024-01-05T07:38:44.634Z,5.57
2024-01-05T07:39:44.645Z,5.50
2024-01-05T07:40:44.653Z,5.50
2024-01-05T07:41:44.867Z,5.60
2024-01-05T07:42:44.700Z,5.57
2024-01-05T07:43:44.748Z,5.32
2024-01-05T07:44:44.866Z,5.16
2024-01-05T07:45:44.888Z,5.14
2024-01-05T07:46:46.843Z,5.20
2024-01-05T07:47:45.045Z,5.22
2024-01-05T07:48:45.162Z,5.16
2024-01-05T07:49:45.396Z,5.15
2024-01-05T07:50:45.219Z,5.31
2024-01-05T07:51:45.688Z,5.39
2024-01-05T07:52:45.213Z,5.55
2024-01-05T07:53:45.313Z,5.66
2024-01-05T07:54:45.369Z,5.75
2024-01-05T07:55:45.327Z,5.69
2024-01-05T07:56:45.336Z,5.77
2024-01-05T07:57:48.340Z,5.92
2024-01-05T07:58:45.362Z,5.93
2024-01-05T07:59:45.379Z,6.05
2024-01-05T08:00:45.603Z,6.17
2024-01-05T08:01:45.543Z,6.15
2024-01-05T08:02:45.311Z,5.96
2024-01-05T08:03:45.366Z,6.03
2024-01-05T08:04:45.305Z,6.10
2024-01-05T08:05:47.538Z,6.08
2024-01-05T08:06:45.676Z,6.24
2024-01-05T08:07:46.227Z,6.29
2024-01-05T08:08:45.644Z,6.16
2024-01-05T08:09:45.723Z,5.94
2024-01-05T08:10:45.750Z,5.80
2024-01-05T08:11:46.098Z,5.77
2024-01-05T08:12:45.888Z,5.76
2024-01-05T08:13:45.985Z,5.85
2024-01-05T08:14:45.990Z,6.00
2024-01-05T08:15:46.014Z,6.17
2024-01-05T08:16:45.958Z,6.29
2024-01-05T08:17:46.083Z,6.40
2024-01-05T08:18:46.069Z,6.58
2024-01-05T08:19:46.100Z,6.71
2024-01-05T08:20:46.699Z,6.56
2024-01-05T08:21:46.633Z,6.40
2024-01-05T08:22:46.097Z,6.14
2024-01-05T08:23:46.178Z,6.17
2024-01-05T08:24:46.218Z,6.17
2024-01-05T08:25:46.280Z,6.29
2024-01-05T08:26:46.289Z,6.30
2024-01-05T08:27:46.380Z,6.35
2024-01-05T08:28:46.419Z,6.21
2024-01-05T08:29:46.350Z,6.16
2024-01-05T08:30:46.528Z,6.14
2024-01-05T08:31:47.044Z,6.11
2024-01-05T08:32:46.557Z,6.17
2024-01-05T08:33:46.749Z,6.26
2024-01-05T08:34:46.744Z,6.46
2024-01-05T08:35:46.640Z,6.65
2024-01-05T08:36:46.647Z,6.66
2024-01-05T08:37:46.634Z,6.74
2024-01-05T08:38:46.659Z,6.87
2024-01-05T08:39:46.740Z,6.93
2024-01-05T08:40:46.663Z,6.71
2024-01-05T08:41:46.662Z,6.57
2024-01-05T08:42:46.752Z,6.42
2024-01-05T08:43:46.737Z,6.59
2024-01-05T08:44:46.892Z,6.74
2024-01-05T08:45:47.006Z,6.96
2024-01-05T08:46:46.904Z,7.29
2024-01-05T08:47:46.878Z,7.48
2024-01-05T08:48:47.000Z,7.81
2024-01-05T08:49:47.392Z,7.95
2024-01-05T08:50:46.733Z,8.04
2024-01-05T08:51:46.794Z,7.81
2024-01-05T08:52:46.863Z,7.92
2024-01-05T08:53:46.871Z,7.65
2024-01-05T08:54:50.259Z,7.44
2024-01-05T08:55:46.872Z,7.27
2024-01-05T08:56:46.871Z,7.29
2024-01-05T08:57:46.830Z,7.32
2024-01-05T08:58:46.809Z,7.48
2024-01-05T08:59:46.800Z,7.40
2024-01-05T09:00:46.764Z,7.24
2024-01-05T09:01:46.754Z,7.27
2024-01-05T09:02:46.764Z,7.34
2024-01-05T09:03:46.775Z,7.41
2024-01-05T09:04:46.761Z,7.45
2024-01-05T09:05:46.608Z,7.45
2024-01-05T09:06:46.621Z,7.50
2024-01-05T09:07:46.591Z,7.35
2024-01-05T09:08:46.567Z,7.15
2024-01-05T09:09:46.630Z,7.08
2024-01-05T09:10:46.587Z,7.13
2024-01-05T09:11:46.588Z,7.10
2024-01-05T09:12:46.526Z,7.15
2024-01-05T09:13:46.483Z,7.21
2024-01-05T09:14:46.510Z,7.41
2024-01-05T09:15:46.514Z,7.43
2024-01-05T09:16:46.407Z,7.54
2024-01-05T09:17:46.458Z,7.58
2024-01-05T09:18:46.506Z,7.58
2024-01-05T09:19:46.402Z,7.36
2024-01-05T09:20:46.436Z,7.32
2024-01-05T09:21:46.473Z,7.31
2024-01-05T09:22:46.347Z,7.34
2024-01-05T09:23:46.360Z,7.32
2024-01-05T09:24:46.315Z,7.49
2024-01-05T09:25:46.772Z,7.54
2024-01-05T09:26:46.184Z,7.65
2024-01-05T09:27:46.262Z,7.70
2024-01-05T09:28:46.089Z,7.73
2024-01-05T09:29:46.098Z,7.52
2024-01-05T09:30:46.104Z,7.27
2024-01-05T09:31:46.072Z,7.20
2024-01-05T09:32:46.033Z,7.35
2024-01-05T09:33:46.059Z,7.53
2024-01-05T09:34:46.111Z,7.57
2024-01-05T09:35:45.824Z,7.82
2024-01-05T09:36:46.018Z,7.99
2024-01-05T09:37:45.937Z,8.05
2024-01-05T09:38:45.955Z,8.08
2024-01-05T09:39:46.008Z,8.15
2024-01-05T09:40:45.857Z,8.17
2024-01-05T09:41:45.871Z,8.19
2024-01-05T09:42:45.943Z,8.16
2024-01-05T09:43:45.886Z,8.12
2024-01-05T09:44:45.897Z,8.14
2024-01-05T09:45:45.920Z,8.12
2024-01-05T09:46:45.714Z,8.01
2024-01-05T09:47:45.862Z,8.00
2024-01-05T09:48:51.393Z,7.99
2024-01-05T09:49:46.999Z,8.16
2024-01-05T09:50:45.653Z,8.31
2024-01-05T09:51:45.591Z,8.52
2024-01-05T09:52:45.548Z,8.72
2024-01-05T09:53:45.453Z,8.93
2024-01-05T09:54:45.498Z,9.10
2024-01-05T09:55:45.470Z,9.24
2024-01-05T09:56:45.368Z,9.30
2024-01-05T09:57:45.448Z,9.39
2024-01-05T09:58:45.325Z,9.42
2024-01-05T09:59:45.279Z,9.50
2024-01-05T10:00:45.433Z,9.47
2024-01-05T10:01:45.304Z,9.33
2024-01-05T10:02:45.227Z,9.16
2024-01-05T10:03:45.375Z,9.20
2024-01-05T10:04:45.491Z,9.44
2024-01-05T10:05:45.259Z,9.69
2024-01-05T10:06:45.278Z,9.66
2024-01-05T10:07:45.283Z,9.49
2024-01-05T10:08:45.153Z,9.69
2024-01-05T10:09:45.287Z,9.87
2024-01-05T10:10:45.314Z,10.01
2024-01-05T10:11:45.176Z,10.10
2024-01-05T10:12:45.106Z,10.33
2024-01-05T10:13:45.063Z,10.65
2024-01-05T10:14:44.982Z,10.77
2024-01-05T10:15:45.054Z,10.75
2024-01-05T10:16:44.904Z,10.89
2024-01-05T10:17:45.067Z,11.13
2024-01-05T10:18:44.919Z,11.23
2024-01-05T10:19:44.977Z,11.39
2024-01-05T10:20:44.709Z,11.56
2024-01-05T10:21:44.831Z,11.70
2024-01-05T10:22:44.736Z,11.56
2024-01-05T10:23:44.759Z,11.45
2024-01-05T10:24:44.743Z,11.25
2024-01-05T10:25:44.534Z,11.10
2024-01-05T10:26:44.554Z,11.10
2024-01-05T10:27:44.611Z,11.05
2024-01-05T10:28:44.454Z,11.15
2024-01-05T10:29:45.246Z,11.02
2024-01-05T10:30:44.483Z,11.00
2024-01-05T10:31:44.414Z,11.02
2024-01-05T10:32:44.393Z,10.86
2024-01-05T10:33:44.444Z,10.97
2024-01-05T10:34:44.469Z,11.11
2024-01-05T10:35:47.127Z,10.98
2024-01-05T10:36:44.170Z,10.64
2024-01-05T10:37:44.161Z,10.46
2024-01-05T10:38:44.004Z,10.53
2024-01-05T10:39:43.920Z,10.40
2024-01-05T10:40:43.919Z,10.54
2024-01-05T10:41:47.587Z,10.71
2024-01-05T10:42:43.797Z,10.81
2024-01-05T10:43:43.746Z,10.82
2024-01-05T10:44:43.643Z,10.84
2024-01-05T10:45:43.692Z,10.83
2024-01-05T10:46:43.432Z,10.80
2024-01-05T10:47:44.993Z,10.50
2024-01-05T10:48:43.382Z,10.44
2024-01-05T10:49:43.337Z,10.52
2024-01-05T10:50:43.177Z,10.62
2024-01-05T10:51:43.153Z,10.69
2024-01-05T10:52:42.980Z,10.78
2024-01-05T10:53:42.994Z,10.63
2024-01-05T10:54:42.939Z,10.61
2024-01-05T10:55:42.883Z,10.65
2024-01-05T10:56:42.799Z,10.54
2024-01-05T10:57:42.786Z,10.72
2024-01-05T10:58:42.630Z,10.75
2024-01-05T10:59:42.639Z,10.60
2024-01-05T11:00:42.680Z,10.54
2024-01-05T11:01:42.530Z,10.59
2024-01-05T11:02:42.996Z,10.69
2024-01-05T11:03:42.383Z,10.76
2024-01-05T11:04:42.319Z,10.88
2024-01-05T11:05:42.485Z,11.13
2024-01-05T11:06:42.219Z,11.18
2024-01-05T11:07:42.829Z,11.25
2024-01-05T11:08:41.972Z,11.28
2024-01-05T11:09:41.997Z,11.35
2024-01-05T11:10:41.860Z,11.33
2024-01-05T11:11:41.755Z,11.24
2024-01-05T11:12:41.812Z,11.29
2024-01-05T11:13:57.806Z,11.19
2024-01-05T11:14:57.939Z,11.20
2024-01-05T11:15:57.889Z,11.31
2024-01-05T11:16:57.798Z,11.30
2024-01-05T11:17:58.030Z,11.35
2024-01-05T11:18:58.102Z,11.33
2024-01-05T11:19:58.070Z,11.38
2024-01-05T11:20:57.944Z,11.39
2024-01-05T11:21:57.926Z,11.53
2024-01-05T11:22:57.954Z,11.60
2024-01-05T11:23:58.000Z,11.64
2024-01-05T11:24:58.109Z,11.71
2024-01-05T11:25:57.966Z,11.74
2024-01-05T11:26:58.008Z,11.78
2024-01-05T11:27:57.980Z,11.79
2024-01-05T11:28:58.060Z,11.76
2024-01-05T11:29:58.011Z,11.66
2024-01-05T11:30:58.065Z,11.74
2024-01-05T11:31:58.013Z,11.95
2024-01-05T11:32:58.025Z,12.10
2024-01-05T11:33:58.209Z,12.06
2024-01-05T11:34:58.070Z,11.96
2024-01-05T11:35:58.057Z,11.91
2024-01-05T11:36:58.027Z,11.89
2024-01-05T11:37:58.037Z,12.05
2024-01-05T11:38:58.708Z,12.08
2024-01-05T11:39:58.067Z,12.04
2024-01-05T11:40:58.055Z,12.18
2024-01-05T11:41:58.114Z,12.25
2024-01-05T11:42:58.075Z,12.27
2024-01-05T11:43:58.077Z,12.13
2024-01-05T11:44:58.269Z,12.23
2024-01-05T11:45:58.095Z,12.35
2024-01-05T11:46:58.074Z,12.31
2024-01-05T11:47:58.180Z,12.29
2024-01-05T11:48:58.257Z,12.53
2024-01-05T11:49:58.166Z,12.74
2024-01-05T11:50:58.185Z,12.74
2024-01-05T11:51:58.139Z,12.98
2024-01-05T11:52:58.154Z,13.05
2024-01-05T11:53:58.144Z,13.25
2024-01-05T11:54:58.243Z,13.35
2024-01-05T11:55:58.058Z,13.55
2024-01-05T11:56:58.084Z,13.47
2024-01-05T11:57:58.781Z,13.19
2024-01-05T11:58:58.102Z,12.94
2024-01-05T11:59:58.613Z,13.07
2024-01-05T12:00:58.155Z,13.24
2024-01-05T12:01:58.112Z,13.48
2024-01-05T12:02:58.124Z,13.51
2024-01-05T12:03:58.170Z,13.55
2024-01-05T12:04:58.257Z,13.62
2024-01-05T12:05:58.225Z,13.76
2024-01-05T12:06:58.142Z,13.74
2024-01-05T12:07:58.242Z,13.64
2024-01-05T12:08:58.288Z,13.59
2024-01-05T12:09:58.260Z,13.57
2024-01-05T12:10:58.237Z,13.48
2024-01-05T12:12:00.253Z,13.52
2024-01-05T12:12:58.183Z,13.52
2024-01-05T12:13:58.286Z,13.61
2024-01-05T12:14:58.333Z,13.24
2024-01-05T12:16:01.735Z,13.16
2024-01-05T12:16:58.200Z,13.05
2024-01-05T12:17:58.324Z,13.05
2024-01-05T12:18:58.384Z,12.96
2024-01-05T12:19:58.325Z,12.73
2024-01-05T12:20:58.282Z,12.67
2024-01-05T12:21:58.225Z,12.78
2024-01-05T12:22:58.274Z,12.94
2024-01-05T12:23:58.385Z,13.04
2024-01-05T12:24:58.257Z,12.83
2024-01-05T12:25:58.191Z,12.98
2024-01-05T12:26:58.202Z,13.14
2024-01-05T12:27:58.178Z,13.19
2024-01-05T12:28:58.206Z,13.33
2024-01-05T12:29:58.330Z,13.32
2024-01-05T12:30:58.312Z,13.40
2024-01-05T12:31:58.104Z,13.23
2024-01-05T12:32:58.179Z,13.23
2024-01-05T12:33:58.251Z,13.26
2024-01-05T12:34:58.140Z,13.31
2024-01-05T12:35:58.213Z,13.50
2024-01-05T12:36:58.184Z,13.65
2024-01-05T12:37:58.125Z,13.75
2024-01-05T12:38:58.055Z,13.67
2024-01-05T12:39:58.067Z,13.63
2024-01-05T12:40:58.065Z,13.58
2024-01-05T12:41:58.122Z,13.65
2024-01-05T12:42:58.156Z,13.63
2024-01-05T12:43:58.179Z,13.63
2024-01-05T12:44:58.233Z,13.69
2024-01-05T12:45:58.190Z,13.64
2024-01-05T12:46:58.110Z,13.75
2024-01-05T12:47:58.383Z,13.60
2024-01-05T12:48:58.437Z,13.06
2024-01-05T12:49:58.393Z,12.82
2024-01-05T12:50:58.434Z,12.90
2024-01-05T12:51:58.447Z,12.99
2024-01-05T12:52:58.467Z,12.99
2024-01-05T12:53:58.492Z,13.11
2024-01-05T12:54:58.563Z,12.75
2024-01-05T12:55:59.294Z,12.60
2024-01-05T12:56:58.714Z,12.48
2024-01-05T12:57:58.791Z,12.70
2024-01-05T12:58:59.023Z,12.79
2024-01-05T12:59:58.959Z,12.55
2024-01-05T13:00:59.194Z,12.14
2024-01-05T13:01:59.024Z,12.12
2024-01-05T13:02:59.160Z,12.08
2024-01-05T13:03:59.314Z,12.19
2024-01-05T13:04:59.249Z,12.35
2024-01-05T13:05:59.827Z,12.60
2024-01-05T13:06:59.321Z,12.84
2024-01-05T13:07:59.340Z,13.02
2024-01-05T13:08:59.635Z,13.13
2024-01-05T13:09:59.501Z,13.19
2024-01-05T13:10:59.515Z,13.27
2024-01-05T13:11:59.499Z,13.29
2024-01-05T13:12:59.524Z,13.32
2024-01-05T13:13:59.613Z,13.25
2024-01-05T13:14:59.733Z,13.23